createdAt,value
2016-10-03T00:00:33.881Z,0.40
2016-10-03T00:01:34.369Z,0.10
2016-10-03T00:02:34.910Z,0.00
2016-10-03T00:03:35.393Z,0.30
2016-10-03T00:04:35.931Z,0.50
2016-10-03T00:05:36.442Z,0.20
2016-10-03T00:06:37.072Z,0.00
2016-10-03T00:07:37.445Z,0.00
2016-10-03T00:08:37.955Z,0.00
2016-10-03T00:09:38.471Z,0.00
2016-10-03T00:10:39.135Z,0.20
2016-10-03T00:11:39.512Z,0.50
2016-10-03T00:12:40.027Z,0.60
2016-10-03T00:13:40.531Z,0.70
2016-10-03T00:14:41.193Z,0.50
2016-10-03T00:15:41.557Z,0.50
2016-10-03T00:16:42.092Z,0.40
2016-10-03T00:17:42.604Z,1.30
2016-10-03T00:18:43.089Z,1.10
2016-10-03T00:19:43.634Z,0.90
2016-10-03T00:20:44.115Z,1.00
2016-10-03T00:21:44.656Z,1.40
2016-10-03T00:22:45.160Z,0.80
2016-10-03T00:23:45.682Z,0.60
2016-10-03T00:24:46.308Z,1.20
2016-10-03T00:25:46.699Z,0.60
2016-10-03T00:26:47.187Z,0.40
2016-10-03T00:27:47.700Z,0.50
2016-10-03T00:28:48.206Z,0.40
2016-10-03T00:29:48.737Z,0.70
2016-10-03T00:30:49.376Z,1.60
2016-10-03T00:31:49.742Z,1.10
2016-10-03T00:32:50.251Z,1.30
2016-10-03T00:33:50.791Z,1.20
2016-10-03T00:34:51.274Z,0.90
2016-10-03T00:35:51.783Z,1.10
2016-10-03T00:36:52.292Z,0.80
2016-10-03T00:37:52.803Z,1.10
2016-10-03T00:38:53.464Z,0.80
2016-10-03T00:39:53.831Z,0.50
2016-10-03T00:40:54.347Z,2.50
2016-10-03T00:41:54.874Z,1.90
2016-10-03T00:42:55.386Z,1.40
2016-10-03T00:43:55.879Z,0.50
2016-10-03T00:44:56.394Z,0.80
2016-10-03T00:45:56.929Z,1.10
2016-10-03T00:46:57.574Z,1.00
2016-10-03T00:47:57.973Z,0.40
2016-10-03T00:48:58.453Z,0.40
2016-10-03T00:49:58.996Z,0.70
2016-10-03T00:50:59.481Z,0.00
2016-10-03T00:52:00.023Z,0.70
2016-10-03T00:53:00.539Z,0.80
2016-10-03T00:54:01.027Z,0.80
2016-10-03T00:55:01.567Z,1.30
2016-10-03T00:56:02.075Z,1.10
2016-10-03T00:57:02.707Z,0.30
2016-10-03T00:58:03.071Z,0.50
2016-10-03T00:59:03.728Z,0.30
2016-10-03T01:00:04.128Z,0.50
2016-10-03T01:01:04.607Z,0.50
2016-10-03T01:02:05.115Z,0.50
2016-10-03T01:03:05.776Z,0.60
2016-10-03T01:04:06.146Z,0.40
2016-10-03T01:05:06.655Z,0.40
2016-10-03T01:06:07.166Z,0.10
2016-10-03T01:07:07.678Z,0.40
2016-10-03T01:08:08.190Z,0.50
2016-10-03T01:09:08.728Z,0.50
2016-10-03T01:10:09.377Z,1.10
2016-10-03T01:11:09.743Z,0.70
2016-10-03T01:12:10.265Z,0.70
2016-10-03T01:13:10.769Z,0.70
2016-10-03T01:14:11.249Z,0.50
2016-10-03T01:15:11.766Z,0.40
2016-10-03T01:16:12.275Z,0.50
2016-10-03T01:17:12.823Z,0.60
2016-10-03T01:18:13.303Z,0.40
2016-10-03T01:19:13.851Z,0.40
2016-10-03T01:20:14.350Z,0.10
2016-10-03T01:21:14.865Z,0.40
2016-10-03T01:22:15.348Z,0.70
2016-10-03T01:23:15.894Z,0.40
2016-10-03T01:24:16.390Z,0.50
2016-10-03T01:25:17.046Z,0.80
2016-10-03T01:26:17.436Z,0.40
2016-10-03T01:27:17.923Z,0.50
2016-10-03T01:28:18.429Z,0.30
2016-10-03T01:29:18.969Z,0.50
2016-10-03T01:30:19.475Z,0.50
2016-10-03T01:31:19.964Z,0.70
2016-10-03T01:32:20.472Z,0.30
2016-10-03T01:33:20.984Z,0.20
2016-10-03T01:34:21.495Z,0.10
2016-10-03T01:35:22.037Z,0.40
2016-10-03T01:36:22.545Z,0.60
2016-10-03T01:37:23.038Z,0.60
2016-10-03T01:38:23.540Z,0.70
2016-10-03T01:39:24.061Z,1.10
2016-10-03T01:40:24.607Z,1.60
2016-10-03T01:41:25.108Z,1.80
2016-10-03T01:42:25.587Z,1.80
2016-10-03T01:43:26.247Z,2.00
2016-10-03T01:44:26.609Z,2.20
2016-10-03T01:45:27.122Z,2.40
2016-10-03T01:46:27.662Z,3.60
2016-10-03T01:47:28.147Z,2.50
2016-10-03T01:48:28.683Z,2.10
2016-10-03T01:49:29.160Z,2.00
2016-10-03T01:50:29.709Z,1.80
2016-10-03T01:51:30.330Z,5.70
2016-10-03T01:52:30.737Z,6.00
2016-10-03T01:53:31.208Z,3.70
2016-10-03T01:54:31.746Z,2.90
2016-10-03T01:55:32.260Z,2.80
2016-10-03T01:56:32.741Z,3.30
2016-10-03T01:57:33.286Z,4.70
2016-10-03T01:58:33.771Z,2.60
2016-10-03T01:59:34.288Z,2.50
2016-10-03T02:00:34.818Z,2.00
2016-10-03T02:01:35.355Z,2.50
2016-10-03T02:02:35.860Z,2.60
2016-10-03T02:03:36.495Z,2.60
2016-10-03T02:04:36.861Z,2.80
2016-10-03T02:05:37.398Z,3.70
2016-10-03T02:06:37.912Z,2.80
2016-10-03T02:07:38.546Z,2.80
2016-10-03T02:08:40.570Z,2.90
2016-10-03T02:09:39.449Z,3.20
2016-10-03T02:10:39.960Z,3.40
2016-10-03T02:11:40.448Z,2.90
2016-10-03T02:12:41.000Z,2.50
2016-10-03T02:13:41.498Z,2.20
2016-10-03T02:14:42.019Z,2.70
2016-10-03T02:15:42.496Z,3.10
2016-10-03T02:16:43.009Z,3.10
2016-10-03T02:17:43.672Z,3.40
2016-10-03T02:18:44.059Z,4.30
2016-10-03T02:19:44.574Z,3.80
2016-10-03T02:20:45.061Z,3.40
2016-10-03T02:21:45.575Z,2.70
2016-10-03T02:22:46.085Z,2.10
2016-10-03T02:23:46.599Z,2.50
2016-10-03T02:24:47.139Z,2.10
2016-10-03T02:25:47.772Z,2.10
2016-10-03T02:26:48.137Z,2.50
2016-10-03T02:27:48.650Z,1.90
2016-10-03T02:28:49.188Z,2.90
2016-10-03T02:29:49.700Z,4.80
2016-10-03T02:30:50.211Z,3.50
2016-10-03T02:31:50.696Z,3.30
2016-10-03T02:32:51.209Z,2.90
2016-10-03T02:33:51.720Z,2.90
2016-10-03T02:34:52.238Z,1.90
2016-10-03T02:35:52.741Z,2.10
2016-10-03T02:36:53.259Z,2.50
2016-10-03T02:37:53.803Z,2.10
2016-10-03T02:38:54.450Z,1.90
2016-10-03T02:39:54.813Z,1.20
2016-10-03T02:40:55.326Z,2.10
2016-10-03T02:41:55.860Z,3.00
2016-10-03T02:42:56.374Z,3.00
2016-10-03T02:43:56.866Z,2.20
2016-10-03T02:44:57.418Z,2.40
2016-10-03T02:45:58.030Z,2.60
2016-10-03T02:46:58.395Z,2.60
2016-10-03T02:47:59.047Z,1.50
2016-10-03T02:48:59.434Z,1.90
2016-10-03T02:49:59.918Z,1.70
2016-10-03T02:51:00.436Z,2.40
2016-10-03T02:52:01.091Z,3.70
2016-10-03T02:53:01.459Z,3.60
2016-10-03T02:54:01.992Z,2.50
2016-10-03T02:55:02.474Z,2.60
2016-10-03T02:56:03.137Z,3.20
2016-10-03T02:57:03.501Z,2.30
2016-10-03T02:58:04.155Z,2.70
2016-10-03T02:59:04.519Z,3.20
2016-10-03T03:00:05.054Z,2.90
2016-10-03T03:01:05.538Z,4.50
2016-10-03T03:02:06.042Z,3.20
2016-10-03T03:03:06.561Z,4.10
2016-10-03T03:04:07.065Z,3.40
2016-10-03T03:05:07.614Z,2.90
2016-10-03T03:06:08.086Z,4.30
2016-10-03T03:07:08.592Z,3.60
2016-10-03T03:08:09.103Z,3.30
2016-10-03T03:09:09.644Z,3.80
2016-10-03T03:10:10.132Z,3.80
2016-10-03T03:11:10.636Z,5.10
2016-10-03T03:12:11.181Z,3.30
2016-10-03T03:13:11.692Z,3.80
2016-10-03T03:14:12.612Z,4.00
2016-10-03T03:15:12.677Z,3.70
2016-10-03T03:16:13.189Z,4.00
2016-10-03T03:17:13.715Z,4.20
2016-10-03T03:18:14.254Z,5.00
2016-10-03T03:19:14.742Z,4.20
2016-10-03T03:20:15.250Z,3.70
2016-10-03T03:21:15.798Z,2.80
2016-10-03T03:22:16.297Z,3.70
2016-10-03T03:23:16.785Z,3.70
2016-10-03T03:24:17.301Z,3.80
2016-10-03T03:25:17.837Z,3.00
2016-10-03T03:26:18.348Z,3.20
2016-10-03T03:27:18.829Z,4.50
2016-10-03T03:28:19.381Z,3.70
2016-10-03T03:29:19.849Z,3.50
2016-10-03T03:30:20.360Z,5.20
2016-10-03T03:31:20.868Z,3.90
2016-10-03T03:32:21.379Z,4.10
2016-10-03T03:33:21.909Z,4.40
2016-10-03T03:34:22.429Z,3.00
2016-10-03T03:35:22.915Z,3.20
2016-10-03T03:36:23.433Z,3.60
2016-10-03T03:37:23.936Z,3.70
2016-10-03T03:38:24.601Z,3.40
2016-10-03T03:39:24.991Z,3.60
2016-10-03T03:40:25.477Z,3.60
2016-10-03T03:41:26.014Z,5.50
2016-10-03T03:42:26.497Z,3.90
2016-10-03T03:43:27.035Z,3.80
2016-10-03T03:44:27.521Z,3.80
2016-10-03T03:45:28.066Z,3.80
2016-10-03T03:46:28.693Z,2.50
2016-10-03T03:47:29.057Z,2.70
2016-10-03T03:48:29.607Z,3.40
2016-10-03T03:49:30.105Z,3.10
2016-10-03T03:50:30.601Z,3.10
2016-10-03T03:51:31.108Z,2.50
2016-10-03T03:52:31.647Z,3.60
2016-10-03T03:53:32.141Z,3.40
2016-10-03T03:54:32.650Z,2.90
2016-10-03T03:55:33.176Z,3.30
2016-10-03T03:56:33.827Z,3.80
2016-10-03T03:57:34.216Z,3.40
2016-10-03T03:58:34.742Z,3.40
2016-10-03T03:59:35.241Z,2.50
2016-10-03T04:00:35.754Z,1.80
2016-10-03T04:01:36.263Z,2.50
2016-10-03T04:02:36.772Z,2.50
2016-10-03T04:03:37.254Z,2.10
2016-10-03T04:04:37.922Z,2.50
2016-10-03T04:05:38.425Z,2.30
2016-10-03T04:06:38.784Z,2.50
2016-10-03T04:07:39.320Z,2.00
2016-10-03T04:08:39.806Z,1.60
2016-10-03T04:09:40.339Z,1.10
2016-10-03T04:10:40.971Z,0.90
2016-10-03T04:11:41.365Z,0.90
2016-10-03T04:12:41.844Z,1.50
2016-10-03T04:13:42.359Z,1.90
2016-10-03T04:14:43.015Z,1.40
2016-10-03T04:15:43.379Z,1.50
2016-10-03T04:16:43.888Z,1.50
2016-10-03T04:17:44.426Z,2.20
2016-10-03T04:18:44.911Z,2.60
2016-10-03T04:19:45.421Z,2.20
2016-10-03T04:20:45.926Z,1.70
2016-10-03T04:21:46.431Z,2.30
2016-10-03T04:22:46.972Z,3.30
2016-10-03T04:23:47.457Z,2.60
2016-10-03T04:24:47.989Z,2.00
2016-10-03T04:25:48.509Z,1.70
2016-10-03T04:26:48.991Z,1.90
2016-10-03T04:27:49.530Z,2.10
2016-10-03T04:28:50.016Z,2.70
2016-10-03T04:29:50.533Z,1.90
2016-10-03T04:30:51.196Z,1.40
2016-10-03T04:31:51.567Z,1.10
2016-10-03T04:32:52.104Z,1.20
2016-10-03T04:33:52.624Z,0.80
2016-10-03T04:34:53.107Z,0.50
2016-10-03T04:35:53.632Z,0.30
2016-10-03T04:36:54.119Z,0.20
2016-10-03T04:37:54.778Z,0.50
2016-10-03T04:38:55.171Z,0.40
2016-10-03T04:39:55.657Z,0.10
2016-10-03T04:40:56.317Z,0.00
2016-10-03T04:41:56.694Z,0.00
2016-10-03T04:42:57.191Z,0.10
2016-10-03T04:43:57.852Z,0.10
2016-10-03T04:44:58.362Z,0.30
2016-10-03T04:45:58.758Z,0.20
2016-10-03T04:46:59.278Z,0.10
2016-10-03T04:47:59.796Z,0.10
2016-10-03T04:49:00.432Z,0.60
2016-10-03T04:50:00.811Z,0.30
2016-10-03T04:51:01.363Z,0.70
2016-10-03T04:52:01.875Z,0.50
2016-10-03T04:53:02.369Z,0.40
2016-10-03T04:54:02.902Z,0.30
2016-10-03T04:55:03.431Z,0.50
2016-10-03T04:56:03.947Z,0.40
2016-10-03T04:57:04.470Z,0.70
2016-10-03T04:58:04.957Z,1.10
2016-10-03T04:59:05.509Z,1.10
2016-10-03T05:00:05.997Z,0.70
2016-10-03T05:01:06.667Z,0.50
2016-10-03T05:02:07.060Z,0.50
2016-10-03T05:03:07.697Z,0.50
2016-10-03T05:04:08.086Z,0.40
2016-10-03T05:05:08.611Z,0.90
2016-10-03T05:06:09.122Z,0.90
2016-10-03T05:07:09.639Z,0.30
2016-10-03T05:08:10.129Z,0.70
2016-10-03T05:09:10.644Z,0.70
2016-10-03T05:10:11.303Z,0.20
2016-10-03T05:11:11.695Z,0.00
2016-10-03T05:12:12.202Z,0.40
2016-10-03T05:13:12.717Z,0.70
2016-10-03T05:14:13.212Z,0.50
2016-10-03T05:15:13.728Z,0.80
2016-10-03T05:16:14.240Z,0.40
2016-10-03T05:17:14.868Z,0.60
2016-10-03T05:18:15.231Z,0.20
2016-10-03T05:19:15.765Z,0.00
2016-10-03T05:20:16.272Z,0.00
2016-10-03T05:21:16.760Z,0.00
2016-10-03T05:22:17.306Z,0.60
2016-10-03T05:23:17.923Z,0.90
2016-10-03T05:24:18.286Z,1.10
2016-10-03T05:25:18.825Z,1.00
2016-10-03T05:26:19.334Z,0.50
2016-10-03T05:27:19.830Z,0.70
2016-10-03T05:28:20.505Z,0.70
2016-10-03T05:29:20.839Z,0.70
2016-10-03T05:30:21.392Z,0.80
2016-10-03T05:31:21.860Z,1.00
2016-10-03T05:32:22.368Z,1.00
2016-10-03T05:33:22.883Z,0.80
2016-10-03T05:34:23.391Z,1.30
2016-10-03T05:35:23.902Z,0.50
2016-10-03T05:36:24.414Z,1.10
2016-10-03T05:37:24.949Z,0.60
2016-10-03T05:38:25.429Z,0.00
2016-10-03T05:39:26.089Z,0.00
2016-10-03T05:40:26.449Z,0.00
2016-10-03T05:41:26.962Z,0.00
2016-10-03T05:42:27.489Z,0.00
2016-10-03T05:43:28.133Z,0.20
2016-10-03T05:44:28.529Z,0.10
2016-10-03T05:45:29.020Z,0.00
2016-10-03T05:46:29.538Z,0.00
2016-10-03T05:47:30.083Z,0.10
2016-10-03T05:48:30.565Z,0.30
2016-10-03T05:49:31.231Z,0.30
2016-10-03T05:50:31.593Z,0.40
2016-10-03T05:51:32.135Z,0.90
2016-10-03T05:52:32.637Z,0.80
2016-10-03T05:53:33.151Z,0.60
2016-10-03T05:54:33.662Z,0.70
2016-10-03T05:55:34.287Z,0.70
2016-10-03T05:56:34.651Z,1.20
2016-10-03T05:57:35.166Z,1.40
2016-10-03T05:58:35.677Z,1.20
2016-10-03T05:59:36.188Z,1.10
2016-10-03T06:00:36.699Z,0.80
2016-10-03T06:01:37.210Z,1.70
2016-10-03T06:02:37.719Z,1.10
2016-10-03T06:03:38.230Z,1.10
2016-10-03T06:04:38.764Z,0.80
2016-10-03T06:05:39.399Z,0.80
2016-10-03T06:06:39.758Z,0.80
2016-10-03T06:08:40.794Z,1.30
2016-10-03T06:09:41.442Z,1.60
2016-10-03T06:10:41.817Z,1.30
2016-10-03T06:11:42.320Z,1.30
2016-10-03T06:12:42.983Z,1.60
2016-10-03T06:13:43.345Z,0.80
2016-10-03T06:14:43.891Z,0.90
2016-10-03T06:15:44.514Z,1.50
2016-10-03T06:16:44.878Z,1.60
2016-10-03T06:17:45.421Z,2.10
2016-10-03T06:18:45.898Z,1.30
2016-10-03T06:19:46.413Z,1.10
2016-10-03T06:20:46.950Z,1.50
2016-10-03T06:21:47.442Z,1.60
2016-10-03T06:22:47.987Z,1.40
2016-10-03T06:23:48.623Z,1.40
2016-10-03T06:24:49.017Z,2.70
2016-10-03T06:25:49.506Z,2.20
2016-10-03T06:26:50.032Z,0.80
2016-10-03T06:27:50.527Z,1.00
2016-10-03T06:28:51.040Z,1.40
2016-10-03T06:29:51.552Z,1.80
2016-10-03T06:30:52.059Z,1.80
2016-10-03T06:31:52.569Z,1.10
2016-10-03T06:32:53.076Z,1.10
2016-10-03T06:33:53.622Z,2.30
2016-10-03T06:34:54.102Z,1.90
2016-10-03T06:35:54.612Z,1.50
2016-10-03T06:36:55.142Z,2.00
2016-10-03T06:37:55.632Z,2.10
2016-10-03T06:38:56.137Z,2.20
2016-10-03T06:39:56.684Z,2.20
2016-10-03T06:40:57.160Z,2.80
2016-10-03T06:41:57.670Z,1.90
2016-10-03T06:42:58.330Z,2.40
2016-10-03T06:43:58.689Z,2.40
2016-10-03T06:44:59.206Z,1.70
2016-10-03T06:45:59.860Z,1.90
2016-10-03T06:47:00.253Z,2.40
2016-10-03T06:48:00.745Z,2.30
2016-10-03T06:49:01.248Z,1.70
2016-10-03T06:50:01.757Z,2.00
2016-10-03T06:51:02.271Z,1.40
2016-10-03T06:52:02.807Z,2.40
2016-10-03T06:53:03.291Z,2.00
2016-10-03T06:54:03.842Z,1.70
2016-10-03T06:55:04.478Z,2.00
2016-10-03T06:56:05.153Z,1.50
2016-10-03T06:57:05.351Z,2.00
2016-10-03T06:58:05.865Z,2.20
2016-10-03T06:59:06.411Z,2.40
2016-10-03T07:00:07.042Z,2.80
2016-10-03T07:01:07.412Z,2.20
2016-10-03T07:02:08.070Z,1.20
2016-10-03T07:03:08.430Z,1.30
2016-10-03T07:04:08.945Z,1.40
2016-10-03T07:05:09.477Z,1.30
2016-10-03T07:06:09.963Z,0.90
2016-10-03T07:07:10.506Z,1.20
2016-10-03T07:08:11.135Z,1.20
2016-10-03T07:09:11.527Z,1.20
2016-10-03T07:10:12.020Z,1.50
2016-10-03T07:11:12.528Z,1.50
2016-10-03T07:12:13.041Z,1.80
2016-10-03T07:13:13.568Z,1.80
2016-10-03T07:14:14.052Z,2.00
2016-10-03T07:15:14.564Z,1.70
2016-10-03T07:16:15.221Z,1.70
2016-10-03T07:17:15.580Z,2.30
2016-10-03T07:18:16.127Z,1.90
2016-10-03T07:19:16.633Z,1.90
2016-10-03T07:20:17.116Z,1.30
2016-10-03T07:21:17.625Z,1.80
2016-10-03T07:22:18.141Z,2.30
2016-10-03T07:23:18.642Z,2.00
2016-10-03T07:24:19.304Z,2.50
2016-10-03T07:25:19.705Z,2.00
2016-10-03T07:26:20.211Z,2.70
2016-10-03T07:27:20.697Z,2.10
2016-10-03T07:28:21.351Z,1.70
2016-10-03T07:29:21.753Z,1.70
2016-10-03T07:30:22.259Z,1.40
2016-10-03T07:31:22.749Z,1.50
2016-10-03T07:32:23.259Z,1.70
2016-10-03T07:33:23.769Z,1.20
2016-10-03T07:34:24.285Z,2.20
2016-10-03T07:35:24.798Z,2.00
2016-10-03T07:36:25.313Z,1.60
2016-10-03T07:37:25.834Z,2.00
2016-10-03T07:38:26.385Z,1.50
2016-10-03T07:39:27.017Z,1.30
2016-10-03T07:40:27.379Z,2.00
2016-10-03T07:41:27.888Z,2.00
2016-10-03T07:42:28.431Z,2.20
2016-10-03T07:43:28.920Z,2.60
2016-10-03T07:44:29.424Z,1.60
2016-10-03T07:45:29.938Z,1.70
2016-10-03T07:46:30.477Z,2.40
2016-10-03T07:47:30.989Z,1.30
2016-10-03T07:48:31.469Z,1.30
2016-10-03T07:49:32.015Z,1.80
2016-10-03T07:50:32.491Z,1.30
2016-10-03T07:51:33.002Z,1.00
2016-10-03T07:52:33.658Z,1.20
2016-10-03T07:53:34.018Z,1.20
2016-10-03T07:54:34.529Z,1.10
2016-10-03T07:55:35.065Z,1.20
2016-10-03T07:56:35.552Z,1.10
2016-10-03T07:57:36.071Z,0.90
2016-10-03T07:58:36.562Z,0.90
2016-10-03T07:59:37.088Z,0.80
2016-10-03T08:00:37.569Z,1.10
2016-10-03T08:01:38.065Z,1.90
2016-10-03T08:02:38.588Z,1.70
2016-10-03T08:03:39.071Z,0.80
2016-10-03T08:04:39.710Z,1.00
2016-10-03T08:05:40.058Z,1.40
2016-10-03T08:06:40.592Z,1.30
2016-10-03T08:07:41.081Z,1.60
2016-10-03T08:08:41.554Z,1.30
2016-10-03T08:09:42.099Z,1.00
2016-10-03T08:10:42.554Z,1.80
2016-10-03T08:11:43.052Z,2.10
2016-10-03T08:12:43.561Z,1.80
2016-10-03T08:13:44.100Z,2.30
2016-10-03T08:14:44.718Z,1.40
2016-10-03T08:15:45.093Z,1.10
2016-10-03T08:16:45.568Z,1.00
2016-10-03T08:17:46.066Z,0.40
2016-10-03T08:18:46.712Z,1.10
2016-10-03T08:19:47.079Z,1.50
2016-10-03T08:20:47.563Z,0.80
2016-10-03T08:21:48.084Z,2.30
2016-10-03T08:22:48.564Z,2.30
2016-10-03T08:23:49.244Z,1.30
2016-10-03T08:24:49.574Z,0.90
2016-10-03T08:25:50.212Z,0.80
2016-10-03T08:26:50.558Z,1.00
2016-10-03T08:27:51.061Z,0.90
2016-10-03T08:28:51.562Z,2.10
2016-10-03T08:29:52.064Z,2.90
2016-10-03T08:30:52.573Z,3.30
2016-10-03T08:31:53.092Z,2.50
2016-10-03T08:32:53.582Z,2.90
2016-10-03T08:33:54.060Z,3.30
2016-10-03T08:34:54.607Z,2.90
2016-10-03T08:35:55.208Z,1.90
2016-10-03T08:36:55.584Z,1.60
2016-10-03T08:37:56.205Z,2.10
2016-10-03T08:38:56.704Z,1.50
2016-10-03T08:39:57.206Z,1.80
2016-10-03T08:40:57.566Z,2.90
2016-10-03T08:41:58.153Z,2.70
2016-10-03T08:42:58.698Z,1.50
2016-10-03T08:43:59.079Z,1.90
2016-10-03T08:44:59.701Z,1.60
2016-10-03T08:46:00.050Z,1.80
2016-10-03T08:47:00.698Z,3.50
2016-10-03T08:48:01.068Z,2.30
2016-10-03T08:49:01.561Z,1.90
2016-10-03T08:50:02.072Z,2.00
2016-10-03T08:51:02.582Z,2.30
2016-10-03T08:52:03.058Z,2.00
2016-10-03T08:53:03.709Z,1.80
2016-10-03T08:54:04.079Z,1.50
2016-10-03T08:55:04.716Z,3.00
2016-10-03T08:56:05.216Z,2.50
2016-10-03T08:57:05.715Z,1.40
2016-10-03T08:58:06.068Z,1.60
2016-10-03T08:59:06.565Z,1.30
2016-10-03T09:00:07.063Z,1.50
2016-10-03T09:01:07.725Z,2.10
2016-10-03T09:02:08.068Z,2.10
2016-10-03T09:03:08.558Z,1.80
2016-10-03T09:04:09.209Z,2.30
2016-10-03T09:05:09.599Z,1.90
2016-10-03T09:06:10.052Z,1.60
2016-10-03T09:07:10.555Z,2.00
2016-10-03T09:08:11.065Z,1.90
2016-10-03T09:09:11.702Z,1.80
2016-10-03T09:10:12.076Z,2.50
2016-10-03T09:11:12.588Z,2.70
2016-10-03T09:12:13.081Z,2.50
2016-10-03T09:13:13.584Z,2.50
2016-10-03T09:14:14.071Z,1.40
2016-10-03T09:15:14.582Z,1.20
2016-10-03T09:16:15.077Z,2.00
2016-10-03T09:17:15.574Z,2.00
2016-10-03T09:18:16.212Z,1.50
2016-10-03T09:19:16.584Z,1.30
2016-10-03T09:20:17.065Z,1.40
2016-10-03T09:21:17.568Z,0.80
2016-10-03T09:22:18.062Z,0.70
2016-10-03T09:23:18.710Z,0.80
2016-10-03T09:24:19.207Z,1.00
2016-10-03T09:25:19.580Z,1.00
2016-10-03T09:26:20.061Z,0.80
2016-10-03T09:27:20.567Z,1.00
2016-10-03T09:28:21.059Z,1.70
2016-10-03T09:29:21.725Z,1.80
2016-10-03T09:30:22.060Z,1.60
2016-10-03T09:31:22.740Z,1.60
2016-10-03T09:32:23.219Z,1.80
2016-10-03T09:33:23.565Z,0.80
2016-10-03T09:34:24.071Z,1.30
2016-10-03T09:35:24.569Z,1.40
2016-10-03T09:36:25.083Z,2.10
2016-10-03T09:37:25.594Z,1.80
2016-10-03T09:38:26.071Z,2.30
2016-10-03T09:39:26.712Z,2.20
2016-10-03T09:40:27.111Z,2.70
2016-10-03T09:41:27.601Z,2.30
2016-10-03T09:42:28.067Z,2.10
2016-10-03T09:43:28.712Z,1.80
2016-10-03T09:44:29.228Z,1.50
2016-10-03T09:45:29.631Z,1.20
2016-10-03T09:46:30.081Z,2.00
2016-10-03T09:47:30.607Z,1.60
2016-10-03T09:48:31.101Z,2.70
2016-10-03T09:49:31.568Z,2.90
2016-10-03T09:50:32.223Z,2.10
2016-10-03T09:51:32.721Z,3.10
2016-10-03T09:52:33.095Z,3.10
2016-10-03T09:53:33.570Z,1.60
2016-10-03T09:54:34.221Z,1.80
2016-10-03T09:55:34.593Z,1.60
2016-10-03T09:56:35.121Z,1.50
2016-10-03T09:57:35.573Z,0.70
2016-10-03T09:58:36.082Z,0.80
2016-10-03T09:59:36.615Z,0.40
2016-10-03T10:00:37.085Z,0.40
2016-10-03T10:01:37.721Z,0.40
2016-10-03T10:02:38.073Z,0.50
2016-10-03T10:03:38.722Z,0.80
2016-10-03T10:04:39.087Z,1.00
2016-10-03T10:05:39.590Z,1.70
2016-10-03T10:06:40.228Z,1.50
2016-10-03T10:07:40.742Z,1.70
2016-10-03T10:08:41.238Z,1.50
2016-10-03T10:09:41.736Z,2.00
2016-10-03T10:10:42.115Z,1.80
2016-10-03T10:11:42.594Z,1.70
2016-10-03T10:12:43.120Z,1.30
2016-10-03T10:13:43.630Z,1.20
2016-10-03T10:14:44.093Z,2.00
2016-10-03T10:15:44.597Z,1.60
2016-10-03T10:16:45.094Z,1.60
2016-10-03T10:17:45.743Z,1.70
2016-10-03T10:18:46.244Z,1.40
2016-10-03T10:19:46.625Z,1.30
2016-10-03T10:20:47.126Z,1.60
2016-10-03T10:21:47.637Z,1.50
2016-10-03T10:22:48.113Z,1.60
2016-10-03T10:23:48.619Z,1.20
2016-10-03T10:24:49.097Z,1.50
2016-10-03T10:25:49.598Z,0.90
2016-10-03T10:26:50.245Z,0.80
2016-10-03T10:27:50.592Z,0.90
2016-10-03T10:28:51.093Z,0.60
2016-10-03T10:29:51.739Z,1.30
2016-10-03T10:30:52.239Z,1.70
2016-10-03T10:31:52.639Z,1.50
2016-10-03T10:32:53.239Z,1.20
2016-10-03T10:33:53.606Z,1.10
2016-10-03T10:34:54.090Z,1.10
2016-10-03T10:35:54.616Z,1.90
2016-10-03T10:36:55.099Z,2.60
2016-10-03T10:37:55.742Z,2.40
2016-10-03T10:38:56.139Z,2.00
2016-10-03T10:39:56.617Z,2.10
2016-10-03T10:40:57.248Z,2.10
2016-10-03T10:41:57.737Z,1.30
2016-10-03T10:42:58.109Z,1.30
2016-10-03T10:43:58.615Z,0.90
2016-10-03T10:44:59.107Z,0.90
2016-10-03T10:45:59.649Z,0.90
2016-10-03T10:47:00.259Z,0.90
2016-10-03T10:48:00.599Z,0.60
2016-10-03T10:49:01.241Z,0.50
2016-10-03T10:50:01.774Z,0.90
2016-10-03T10:51:02.240Z,1.10
2016-10-03T10:52:02.740Z,1.60
2016-10-03T10:53:03.110Z,2.00
2016-10-03T10:54:03.809Z,1.90
2016-10-03T10:55:04.246Z,1.70
2016-10-03T10:56:04.594Z,1.00
2016-10-03T10:57:05.116Z,1.50
2016-10-03T10:58:05.596Z,1.50
2016-10-03T10:59:06.110Z,0.80
2016-10-03T11:00:06.593Z,0.60
2016-10-03T11:01:07.089Z,0.60
2016-10-03T11:02:07.752Z,0.90
2016-10-03T11:03:08.126Z,0.60
2016-10-03T11:04:08.738Z,0.50
2016-10-03T11:05:09.263Z,0.50
2016-10-03T11:06:09.594Z,0.60
2016-10-03T11:07:10.125Z,0.80
2016-10-03T11:08:10.735Z,1.20
2016-10-03T11:09:11.090Z,1.20
2016-10-03T11:10:11.591Z,1.10
2016-10-03T11:11:12.107Z,1.60
2016-10-03T11:12:12.603Z,1.50
2016-10-03T11:13:13.087Z,1.30
2016-10-03T11:14:13.598Z,0.90
2016-10-03T11:15:14.088Z,1.30
2016-10-03T11:16:14.590Z,1.50
2016-10-03T11:17:15.239Z,1.90
2016-10-03T11:18:15.738Z,2.80
2016-10-03T11:19:16.117Z,1.50
2016-10-03T11:20:16.744Z,1.30
2016-10-03T11:21:17.263Z,1.20
2016-10-03T11:22:17.634Z,2.10
2016-10-03T11:23:18.131Z,1.50
2016-10-03T11:24:18.752Z,1.20
2016-10-03T11:25:19.132Z,1.10
2016-10-03T11:26:19.628Z,0.80
2016-10-03T11:27:20.108Z,1.00
2016-10-03T11:28:20.627Z,1.00
2016-10-03T11:29:21.121Z,1.30
2016-10-03T11:30:21.637Z,1.60
2016-10-03T11:31:22.109Z,1.40
2016-10-03T11:32:22.630Z,1.40
2016-10-03T11:33:23.106Z,1.00
2016-10-03T11:34:23.605Z,1.00
2016-10-03T11:35:24.257Z,0.60
2016-10-03T11:36:24.607Z,1.50
2016-10-03T11:37:25.110Z,1.00
2016-10-03T11:38:25.624Z,1.00
2016-10-03T11:39:26.128Z,1.30
2016-10-03T11:40:26.615Z,1.10
2016-10-03T11:41:27.258Z,0.40
2016-10-03T11:42:27.754Z,0.70
2016-10-03T11:43:28.103Z,0.30
2016-10-03T11:44:28.604Z,0.30
2016-10-03T11:45:29.256Z,1.10
2016-10-03T11:46:29.626Z,1.20
2016-10-03T11:47:30.131Z,0.30
2016-10-03T11:48:30.605Z,0.00
2016-10-03T11:49:31.153Z,0.00
2016-10-03T11:50:31.605Z,0.00
2016-10-03T11:51:32.251Z,0.00
2016-10-03T11:52:32.618Z,0.00
2016-10-03T11:53:33.244Z,0.00
2016-10-03T11:54:33.597Z,0.00
2016-10-03T11:55:34.094Z,0.40
2016-10-03T11:56:34.626Z,0.00
2016-10-03T11:57:35.249Z,0.50
2016-10-03T11:58:35.625Z,0.00
2016-10-03T11:59:36.142Z,0.00
2016-10-03T12:00:36.748Z,0.20
2016-10-03T12:01:37.142Z,0.50
2016-10-03T12:02:37.631Z,1.00
2016-10-03T12:03:38.134Z,0.50
2016-10-03T12:04:38.762Z,0.40
2016-10-03T12:05:39.171Z,0.20
2016-10-03T12:06:39.750Z,0.10
2016-10-03T12:07:40.119Z,0.40
2016-10-03T12:08:40.606Z,0.50
2016-10-03T12:09:41.107Z,0.30
2016-10-03T12:10:41.600Z,0.20
2016-10-03T12:11:42.098Z,0.40
2016-10-03T12:12:42.602Z,0.80
2016-10-03T12:13:43.257Z,0.70
2016-10-03T12:14:43.755Z,0.90
2016-10-03T12:15:44.116Z,0.10
2016-10-03T12:16:44.764Z,0.60
2016-10-03T12:17:45.099Z,1.80
2016-10-03T12:18:45.612Z,1.80
2016-10-03T12:19:46.108Z,1.60
2016-10-03T12:20:46.746Z,1.70
2016-10-03T12:21:47.107Z,1.40
2016-10-03T12:22:47.621Z,0.60
2016-10-03T12:23:48.108Z,0.30
2016-10-03T12:24:48.617Z,0.90
2016-10-03T12:25:49.246Z,0.60
2016-10-03T12:26:49.637Z,1.60
2016-10-03T12:27:50.105Z,1.60
2016-10-03T12:28:50.630Z,0.10
2016-10-03T12:29:51.253Z,0.00
2016-10-03T12:30:51.637Z,0.00
2016-10-03T12:31:52.142Z,0.00
2016-10-03T12:32:52.601Z,0.00
2016-10-03T12:33:53.101Z,0.20
2016-10-03T12:34:53.600Z,0.30
2016-10-03T12:35:54.100Z,0.90
2016-10-03T12:36:54.750Z,0.20
2016-10-03T12:37:55.135Z,0.00
2016-10-03T12:38:55.611Z,1.20
2016-10-03T12:39:56.263Z,1.80
2016-10-03T12:40:56.756Z,1.40
2016-10-03T12:41:57.147Z,0.40
2016-10-03T12:42:57.615Z,0.50
2016-10-03T12:43:58.137Z,0.80
2016-10-03T12:44:58.618Z,0.90
2016-10-03T12:45:59.258Z,1.70
2016-10-03T12:46:59.609Z,1.10
2016-10-03T12:48:00.134Z,1.10
2016-10-03T12:49:00.615Z,1.50
2016-10-03T12:50:01.122Z,2.60
2016-10-03T12:51:01.612Z,1.70
2016-10-03T12:52:02.141Z,1.70
2016-10-03T12:53:02.654Z,2.30
2016-10-03T12:54:03.158Z,1.60
2016-10-03T12:55:03.679Z,1.60
2016-10-03T12:56:04.267Z,1.80
2016-10-03T12:57:04.612Z,1.50
2016-10-03T12:58:05.148Z,1.50
2016-10-03T12:59:05.635Z,1.60
2016-10-03T13:00:06.263Z,2.30
2016-10-03T13:01:06.633Z,1.90
2016-10-03T13:02:07.122Z,1.70
2016-10-03T13:03:07.669Z,3.10
2016-10-03T13:04:08.115Z,2.50
2016-10-03T13:05:08.758Z,1.90
2016-10-03T13:06:09.261Z,1.70
2016-10-03T13:07:09.777Z,0.90
2016-10-03T13:08:10.266Z,0.60
2016-10-03T13:09:10.765Z,0.30
2016-10-03T13:10:11.272Z,1.00
2016-10-03T13:11:11.765Z,1.10
2016-10-03T13:12:12.128Z,0.90
2016-10-03T13:13:12.773Z,0.50
2016-10-03T13:14:13.124Z,0.50
2016-10-03T13:15:13.646Z,0.60
2016-10-03T13:16:14.150Z,1.20
2016-10-03T13:17:14.638Z,1.10
2016-10-03T13:18:15.278Z,1.10
2016-10-03T13:19:15.772Z,1.00
2016-10-03T13:20:16.274Z,1.50
2016-10-03T13:21:16.655Z,2.00
2016-10-03T13:22:17.275Z,2.80
2016-10-03T13:23:17.623Z,2.20
2016-10-03T13:24:18.136Z,2.20
2016-10-03T13:25:18.625Z,2.80
2016-10-03T13:26:19.128Z,2.30